Terminal Aerodrome Forecast
Issued by NWS

Home | Current Version | Previous Version | Text Only | Print | Product List | Glossary On
Versions: 1 2 3 4 5 6 7 8 9 10 11 12
000
FTAK31 PANC 231131
TAFAVD
TAF
PAVD 231131Z 2312/2412 VRB04KT P6SM FEW015 BKN040
     FM231800 26006KT P6SM SCT040 BKN120
     FM240400 VRB04KT P6SM SCT120
      AMD LTD TO CLD VIS AND WIND=

USA.gov is the U.S. government's official web portal to all federal, state and local government web resources and services.